Fahri Eksioglu — TCUH — position and weather

sailwx.info

Track history (hours):
 
Tides and Currents Weather Stations Pressure Air Temp Water Temp Dewpoint Dewpoint Depression Visibility Wind Speed Wind Dir Waves Ship Positions

Fahri Eksioglu

Last reported at 2016-Jun-29 16:12 UTC. Time now 2016-Jun-29 20:03 UTC.
Position N 38°18' E 024°32'.

Length 87 m; draft 3.8 m.

Type: Cargo ship. MMSI: 271000450.

Date/timePositionNaut miles runAvg speedWind from/ knotsBaromVisibWave heightAir tempDewpointWater temp
2016-Jun-29 16:12N 38°18' E 024°32'24 8.5
2016-Jun-29 13:24N 37°54' E 024°34'8 9.2
2016-Jun-29 12:29N 37°49' E 024°26'18 9.1
2016-Jun-29 10:32N 37°37' E 024°09'9 8.8
2016-Jun-29 09:32N 37°36' E 023°58'1010.6
2016-Jun-29 08:33N 37°39' E 023°45'1110.8
2016-Jun-29 07:33N 37°48' E 023°37'9 9.2
2016-Jun-29 06:34N 37°57' E 023°36'6 6.0
2016-Jun-29 05:33N 38°02' E 023°32'0 0.0
2016-Jun-29 04:34N 38°02' E 023°32'0 0.0
2016-Jun-29 03:32N 38°02' E 023°32'0 0.0
2016-Jun-29 02:33N 38°02' E 023°32'0 0.0
2016-Jun-29 01:32N 38°02' E 023°32'0 0.0
2016-Jun-29 00:31N 38°02' E 023°32'0 0.0
2016-Jun-28 23:32N 38°02' E 023°32'0 0.0
2016-Jun-28 22:32N 38°02' E 023°32'0 0.0
2016-Jun-28 21:33N 38°02' E 023°32'0 0.0
2016-Jun-28 20:31N 38°02' E 023°32'0 0.0
2016-Jun-28 19:33N 38°02' E 023°32'0 0.0
2016-Jun-28 18:33N 38°02' E 023°32'0 0.0
2016-Jun-28 17:33N 38°02' E 023°32'0 0.0
2016-Jun-28 16:31N 38°02' E 023°32'0 0.0
2016-Jun-28 15:31N 38°02' E 023°32'0 0.0
2016-Jun-28 14:32N 38°02' E 023°32'0 0.0
2016-Jun-28 13:26N 38°02' E 023°32'0 0.0
2016-Jun-28 12:32N 38°02' E 023°32'0 0.0
2016-Jun-28 11:31N 38°02' E 023°32'0 0.0
2016-Jun-28 10:31N 38°02' E 023°32'0 0.0
2016-Jun-28 09:32N 38°02' E 023°32'0 0.0
2016-Jun-28 08:33N 38°02' E 023°32'0 0.0
2016-Jun-28 07:29N 38°02' E 023°32'0 0.0
2016-Jun-28 06:30N 38°02' E 023°32'0 0.0
2016-Jun-28 04:32N 38°02' E 023°32'0 0.0
2016-Jun-28 03:31N 38°02' E 023°32'0 0.0
2016-Jun-28 02:31N 38°02' E 023°32'0 0.0
2016-Jun-28 01:32N 38°02' E 023°32'0 0.0
2016-Jun-28 00:32N 38°02' E 023°32'0 0.0
2016-Jun-27 23:32N 38°02' E 023°32'0 0.0
2016-Jun-27 22:26N 38°02' E 023°32'0 0.0
2016-Jun-27 21:31N 38°02' E 023°32'0 0.0
2016-Jun-27 20:32N 38°02' E 023°32'0 0.0
2016-Jun-27 19:32N 38°02' E 023°32'0 0.0
2016-Jun-27 18:31N 38°02' E 023°32'0 0.0
2016-Jun-27 17:33N 38°02' E 023°32'0 0.0
2016-Jun-27 16:31N 38°02' E 023°32'0 0.0
2016-Jun-27 15:33N 38°02' E 023°32'0 0.0
2016-Jun-27 14:31N 38°02' E 023°32'0 0.0
2016-Jun-27 13:32N 38°02' E 023°32'0 0.0
2016-Jun-27 12:33N 38°02' E 023°32'0 0.0
2016-Jun-27 11:31N 38°02' E 023°32'0 0.0
2016-Jun-27 10:33N 38°02' E 023°32'0 0.0
2016-Jun-27 09:31N 38°02' E 023°32'0 0.0
2016-Jun-27 08:32N 38°02' E 023°32'0 0.0
2016-Jun-27 07:31N 38°02' E 023°32'0 0.0
2016-Jun-27 06:32N 38°02' E 023°32'0 0.0
2016-Jun-27 05:33N 38°02' E 023°32'0 0.0
2016-Jun-27 04:31N 38°02' E 023°32'0 0.0
2016-Jun-27 03:28N 38°02' E 023°32'0 0.0
2016-Jun-27 02:32N 38°02' E 023°32'0 0.0
2016-Jun-27 01:32N 38°02' E 023°32'0 0.0
2016-Jun-27 00:33N 38°02' E 023°32'0 0.0
2016-Jun-26 23:31N 38°02' E 023°32'0 0.0
2016-Jun-26 22:34N 38°02' E 023°32'0 0.0
2016-Jun-26 21:28N 38°02' E 023°32'0 0.0
2016-Jun-26 20:32N 38°02' E 023°32'0 0.0
2016-Jun-26 19:32N 38°02' E 023°32'0 0.0
2016-Jun-26 18:25N 38°02' E 023°32'0 0.0
2016-Jun-26 17:32N 38°02' E 023°32'0 0.0
2016-Jun-26 16:32N 38°02' E 023°32'0 0.0
2016-Jun-26 15:27N 38°02' E 023°32'0 0.0
2016-Jun-26 14:31N 38°02' E 023°32'0 0.0
2016-Jun-26 13:32N 38°02' E 023°32'0 0.0
2016-Jun-26 12:30N 38°02' E 023°32'0 0.0
2016-Jun-26 11:31N 38°02' E 023°32'0 0.0
2016-Jun-26 10:29N 38°02' E 023°32'0 0.0
2016-Jun-26 09:31N 38°02' E 023°32'0 0.0
2016-Jun-26 08:29N 38°02' E 023°32'0 0.0
2016-Jun-26 07:33N 38°02' E 023°32'0 0.0
2016-Jun-26 06:32N 38°02' E 023°32'0 0.0
2016-Jun-26 05:33N 38°02' E 023°32'0 0.0
2016-Jun-26 04:33N 38°02' E 023°32'0 0.0
2016-Jun-26 03:33N 38°02' E 023°32'0 0.0
2016-Jun-26 02:31N 38°02' E 023°32'0 0.0
2016-Jun-26 01:33N 38°02' E 023°32'0 0.0
2016-Jun-26 00:28N 38°02' E 023°32'0 0.0
2016-Jun-25 23:33N 38°02' E 023°32'0 0.0
2016-Jun-25 22:31N 38°02' E 023°32'0 0.0
2016-Jun-25 21:32N 38°02' E 023°32'0 0.0
2016-Jun-25 20:30N 38°02' E 023°32'0 0.0
2016-Jun-25 19:31N 38°02' E 023°32'0 0.0
2016-Jun-25 18:33N 38°02' E 023°32'0 0.0
2016-Jun-25 17:33N 38°02' E 023°32'0 0.0
2016-Jun-25 16:32N 38°02' E 023°32'0 0.0
2016-Jun-25 15:33N 38°02' E 023°32'0 0.0
2016-Jun-25 14:33N 38°02' E 023°32'0 0.0
2016-Jun-25 13:33N 38°02' E 023°32'0 0.0
2016-Jun-25 12:31N 38°02' E 023°32'0 0.0
2016-Jun-25 11:31N 38°02' E 023°32'0 0.0
2016-Jun-25 10:34N 38°02' E 023°32'0 0.0
2016-Jun-25 09:32N 38°02' E 023°32'0 0.0
2016-Jun-25 08:33N 38°02' E 023°32'0 0.0
2016-Jun-25 07:33N 38°02' E 023°32'0 0.0
2016-Jun-25 06:31N 38°02' E 023°32'0 0.0
2016-Jun-25 05:32N 38°02' E 023°32'0 0.0
2016-Jun-25 04:30N 38°02' E 023°32'0 0.0
2016-Jun-25 03:31N 38°02' E 023°32'0 0.0
2016-Jun-25 02:31N 38°02' E 023°32'0 0.0
2016-Jun-25 01:33N 38°02' E 023°32'0 0.0
2016-Jun-25 00:32N 38°02' E 023°32'0 0.0
2016-Jun-24 23:33N 38°02' E 023°32'0 0.0
2016-Jun-24 22:33N 38°02' E 023°32'0 0.0
2016-Jun-24 21:32N 38°02' E 023°32'0 0.0
2016-Jun-24 20:33N 38°02' E 023°32'0 0.0
2016-Jun-24 19:33N 38°02' E 023°32'0 0.0
2016-Jun-24 18:32N 38°02' E 023°32'0 0.0
2016-Jun-24 17:31N 38°02' E 023°32'0 0.0
2016-Jun-24 16:33N 38°02' E 023°32'5 5.5
2016-Jun-24 15:33N 37°57' E 023°35'6 5.9
2016-Jun-24 14:33N 37°51' E 023°37'8 8.0
2016-Jun-24 13:33N 37°44' E 023°43'11 9.1
2016-Jun-24 12:22N 37°38' E 023°53'44 8.6
2016-Jun-24 07:12N 37°21' E 024°45'25 9.6
2016-Jun-24 04:33N 37°19' E 025°17'9 9.3
2016-Jun-24 03:34N 37°20' E 025°28'  
2016-Jun-20 09:21N 39°29' E 026°01'810.2
2016-Jun-20 08:33N 39°36' E 025°56'1010.2
2016-Jun-20 07:33N 39°45' E 025°50'3510.6
2016-Jun-20 04:13N 40°10' E 026°23'  
Track history (hours):
 
Tides and Currents Weather Stations Pressure Air Temp Water Temp Dewpoint Dewpoint Depression Visibility Wind Speed Wind Dir Waves Ship Positions

Fahri Eksioglu

Last reported at 2016-Jun-29 16:12 UTC. Time now 2016-Jun-29 20:03 UTC.
Position N 38°18' E 024°32'.

Length 87 m; draft 3.8 m.

Type: Cargo ship. MMSI: 271000450.

Date/timePositionNaut miles runAvg speedWind from/ knotsBaromVisibWave heightAir tempDewpointWater temp
2016-Jun-29 16:12N 38°18' E 024°32'24 8.5
2016-Jun-29 13:24N 37°54' E 024°34'8 9.2
2016-Jun-29 12:29N 37°49' E 024°26'18 9.1
2016-Jun-29 10:32N 37°37' E 024°09'9 8.8
2016-Jun-29 09:32N 37°36' E 023°58'1010.6
2016-Jun-29 08:33N 37°39' E 023°45'1110.8
2016-Jun-29 07:33N 37°48' E 023°37'9 9.2
2016-Jun-29 06:34N 37°57' E 023°36'6 6.0
2016-Jun-29 05:33N 38°02' E 023°32'0 0.0
2016-Jun-29 04:34N 38°02' E 023°32'0 0.0
2016-Jun-29 03:32N 38°02' E 023°32'0 0.0
2016-Jun-29 02:33N 38°02' E 023°32'0 0.0
2016-Jun-29 01:32N 38°02' E 023°32'0 0.0
2016-Jun-29 00:31N 38°02' E 023°32'0 0.0
2016-Jun-28 23:32N 38°02' E 023°32'0 0.0
2016-Jun-28 22:32N 38°02' E 023°32'0 0.0
2016-Jun-28 21:33N 38°02' E 023°32'0 0.0
2016-Jun-28 20:31N 38°02' E 023°32'0 0.0
2016-Jun-28 19:33N 38°02' E 023°32'0 0.0
2016-Jun-28 18:33N 38°02' E 023°32'0 0.0
2016-Jun-28 17:33N 38°02' E 023°32'0 0.0
2016-Jun-28 16:31N 38°02' E 023°32'0 0.0
2016-Jun-28 15:31N 38°02' E 023°32'0 0.0
2016-Jun-28 14:32N 38°02' E 023°32'0 0.0
2016-Jun-28 13:26N 38°02' E 023°32'0 0.0
2016-Jun-28 12:32N 38°02' E 023°32'0 0.0
2016-Jun-28 11:31N 38°02' E 023°32'0 0.0
2016-Jun-28 10:31N 38°02' E 023°32'0 0.0
2016-Jun-28 09:32N 38°02' E 023°32'0 0.0
2016-Jun-28 08:33N 38°02' E 023°32'0 0.0
2016-Jun-28 07:29N 38°02' E 023°32'0 0.0
2016-Jun-28 06:30N 38°02' E 023°32'0 0.0
2016-Jun-28 04:32N 38°02' E 023°32'0 0.0
2016-Jun-28 03:31N 38°02' E 023°32'0 0.0
2016-Jun-28 02:31N 38°02' E 023°32'0 0.0
2016-Jun-28 01:32N 38°02' E 023°32'0 0.0
2016-Jun-28 00:32N 38°02' E 023°32'0 0.0
2016-Jun-27 23:32N 38°02' E 023°32'0 0.0
2016-Jun-27 22:26N 38°02' E 023°32'0 0.0
2016-Jun-27 21:31N 38°02' E 023°32'0 0.0
2016-Jun-27 20:32N 38°02' E 023°32'0 0.0
2016-Jun-27 19:32N 38°02' E 023°32'0 0.0
2016-Jun-27 18:31N 38°02' E 023°32'0 0.0
2016-Jun-27 17:33N 38°02' E 023°32'0 0.0
2016-Jun-27 16:31N 38°02' E 023°32'0 0.0
2016-Jun-27 15:33N 38°02' E 023°32'0 0.0
2016-Jun-27 14:31N 38°02' E 023°32'0 0.0
2016-Jun-27 13:32N 38°02' E 023°32'0 0.0
2016-Jun-27 12:33N 38°02' E 023°32'0 0.0
2016-Jun-27 11:31N 38°02' E 023°32'0 0.0
2016-Jun-27 10:33N 38°02' E 023°32'0 0.0
2016-Jun-27 09:31N 38°02' E 023°32'0 0.0
2016-Jun-27 08:32N 38°02' E 023°32'0 0.0
2016-Jun-27 07:31N 38°02' E 023°32'0 0.0
2016-Jun-27 06:32N 38°02' E 023°32'0 0.0
2016-Jun-27 05:33N 38°02' E 023°32'0 0.0
2016-Jun-27 04:31N 38°02' E 023°32'0 0.0
2016-Jun-27 03:28N 38°02' E 023°32'0 0.0
2016-Jun-27 02:32N 38°02' E 023°32'0 0.0
2016-Jun-27 01:32N 38°02' E 023°32'0 0.0
2016-Jun-27 00:33N 38°02' E 023°32'0 0.0
2016-Jun-26 23:31N 38°02' E 023°32'0 0.0
2016-Jun-26 22:34N 38°02' E 023°32'0 0.0
2016-Jun-26 21:28N 38°02' E 023°32'0 0.0
2016-Jun-26 20:32N 38°02' E 023°32'0 0.0
2016-Jun-26 19:32N 38°02' E 023°32'0 0.0
2016-Jun-26 18:25N 38°02' E 023°32'0 0.0
2016-Jun-26 17:32N 38°02' E 023°32'0 0.0
2016-Jun-26 16:32N 38°02' E 023°32'0 0.0
2016-Jun-26 15:27N 38°02' E 023°32'0 0.0
2016-Jun-26 14:31N 38°02' E 023°32'0 0.0
2016-Jun-26 13:32N 38°02' E 023°32'0 0.0
2016-Jun-26 12:30N 38°02' E 023°32'0 0.0
2016-Jun-26 11:31N 38°02' E 023°32'0 0.0
2016-Jun-26 10:29N 38°02' E 023°32'0 0.0
2016-Jun-26 09:31N 38°02' E 023°32'0 0.0
2016-Jun-26 08:29N 38°02' E 023°32'0 0.0
2016-Jun-26 07:33N 38°02' E 023°32'0 0.0
2016-Jun-26 06:32N 38°02' E 023°32'0 0.0
2016-Jun-26 05:33N 38°02' E 023°32'0 0.0
2016-Jun-26 04:33N 38°02' E 023°32'0 0.0
2016-Jun-26 03:33N 38°02' E 023°32'0 0.0
2016-Jun-26 02:31N 38°02' E 023°32'0 0.0
2016-Jun-26 01:33N 38°02' E 023°32'0 0.0
2016-Jun-26 00:28N 38°02' E 023°32'0 0.0
2016-Jun-25 23:33N 38°02' E 023°32'0 0.0
2016-Jun-25 22:31N 38°02' E 023°32'0 0.0
2016-Jun-25 21:32N 38°02' E 023°32'0 0.0
2016-Jun-25 20:30N 38°02' E 023°32'0 0.0
2016-Jun-25 19:31N 38°02' E 023°32'0 0.0
2016-Jun-25 18:33N 38°02' E 023°32'0 0.0
2016-Jun-25 17:33N 38°02' E 023°32'0 0.0
2016-Jun-25 16:32N 38°02' E 023°32'0 0.0
2016-Jun-25 15:33N 38°02' E 023°32'0 0.0
2016-Jun-25 14:33N 38°02' E 023°32'0 0.0
2016-Jun-25 13:33N 38°02' E 023°32'0 0.0
2016-Jun-25 12:31N 38°02' E 023°32'0 0.0
2016-Jun-25 11:31N 38°02' E 023°32'0 0.0
2016-Jun-25 10:34N 38°02' E 023°32'0 0.0
2016-Jun-25 09:32N 38°02' E 023°32'0 0.0
2016-Jun-25 08:33N 38°02' E 023°32'0 0.0
2016-Jun-25 07:33N 38°02' E 023°32'0 0.0
2016-Jun-25 06:31N 38°02' E 023°32'0 0.0
2016-Jun-25 05:32N 38°02' E 023°32'0 0.0
2016-Jun-25 04:30N 38°02' E 023°32'0 0.0
2016-Jun-25 03:31N 38°02' E 023°32'0 0.0
2016-Jun-25 02:31N 38°02' E 023°32'0 0.0
2016-Jun-25 01:33N 38°02' E 023°32'0 0.0
2016-Jun-25 00:32N 38°02' E 023°32'0 0.0
2016-Jun-24 23:33N 38°02' E 023°32'0 0.0
2016-Jun-24 22:33N 38°02' E 023°32'0 0.0
2016-Jun-24 21:32N 38°02' E 023°32'0 0.0
2016-Jun-24 20:33N 38°02' E 023°32'0 0.0
2016-Jun-24 19:33N 38°02' E 023°32'0 0.0
2016-Jun-24 18:32N 38°02' E 023°32'0 0.0
2016-Jun-24 17:31N 38°02' E 023°32'0 0.0
2016-Jun-24 16:33N 38°02' E 023°32'5 5.5
2016-Jun-24 15:33N 37°57' E 023°35'6 5.9
2016-Jun-24 14:33N 37°51' E 023°37'8 8.0
2016-Jun-24 13:33N 37°44' E 023°43'11 9.1
2016-Jun-24 12:22N 37°38' E 023°53'44 8.6
2016-Jun-24 07:12N 37°21' E 024°45'25 9.6
2016-Jun-24 04:33N 37°19' E 025°17'9 9.3
2016-Jun-24 03:34N 37°20' E 025°28'  
2016-Jun-20 09:21N 39°29' E 026°01'810.2
2016-Jun-20 08:33N 39°36' E 025°56'1010.2
2016-Jun-20 07:33N 39°45' E 025°50'3510.6
2016-Jun-20 04:13N 40°10' E 026°23'  

Dump ship's entire track history